Time;durP1;ratioP1;P1;durP2;ratioP2;P2;SDS_P1;SDS_P2;PMS_P1;PMS_P2;Temp;Humidity;BMP_temperature;BMP_pressure;BME280_temperature;BME280_humidity;BME280_pressure;Samples;Min_cycle;Max_cycle;Signal;HPM_P1;HPM_P2
2021/05/12 00:00:11;;;;;;;21.67;15.93;;;11.90;99.90;;;;;;5052377;28;20496;-81
2021/05/12 00:02:37;;;;;;;19.98;14.90;;;11.90;99.90;;;;;;5052021;28;20040;-81
2021/05/12 00:05:05;;;;;;;20.33;14.48;;;11.80;99.90;;;;;;5052575;28;20021;-81
2021/05/12 00:07:31;;;;;;;18.13;13.52;;;11.80;99.90;;;;;;5052416;28;20021;-81
2021/05/12 00:09:56;;;;;;;17.15;13.32;;;11.80;99.90;;;;;;5052175;28;20537;-81
2021/05/12 00:12:22;;;;;;;15.82;12.57;;;11.90;99.90;;;;;;5051676;28;20384;-81
2021/05/12 00:14:47;;;;;;;16.80;11.95;;;11.90;99.90;;;;;;5070846;28;20025;-81
2021/05/12 00:17:17;;;;;;;15.95;11.98;;;11.90;99.90;;;;;;5056753;28;20016;-81
2021/05/12 00:19:43;;;;;;;18.13;11.57;;;11.90;99.90;;;;;;5054772;28;20371;-81
2021/05/12 00:24:38;;;;;;;17.55;11.50;;;11.90;99.90;;;;;;5053472;28;20017;-81
2021/05/12 00:27:04;;;;;;;14.40;10.55;;;11.90;99.90;;;;;;5052115;28;20020;-81
2021/05/12 00:29:30;;;;;;;17.23;11.82;;;11.90;99.90;;;;;;5052609;28;20021;-81
2021/05/12 00:31:55;;;;;;;18.42;11.88;;;11.90;99.90;;;;;;5055146;28;20017;-81
2021/05/12 00:34:21;;;;;;;19.75;15.13;;;11.80;99.90;;;;;;5056553;28;20488;-81
2021/05/12 00:36:47;;;;;;;17.98;15.15;;;11.70;99.90;;;;;;5054225;28;20476;-81
2021/05/12 00:39:12;;;;;;;19.40;13.77;;;11.60;99.90;;;;;;5054795;28;20029;-81
2021/05/12 00:41:40;;;;;;;19.15;14.52;;;11.50;99.90;;;;;;5052092;28;20043;-82
2021/05/12 00:44:14;;;;;;;17.60;14.27;;;11.50;99.90;;;;;;5068670;28;20049;-81
2021/05/12 00:46:47;;;;;;;18.00;13.55;;;11.50;99.90;;;;;;5052569;28;20028;-81
2021/05/12 00:49:13;;;;;;;19.30;14.43;;;11.50;99.90;;;;;;5054866;28;20032;-81
2021/05/12 00:51:39;;;;;;;17.15;13.40;;;11.40;99.90;;;;;;5067040;28;20108;-81
2021/05/12 00:54:06;;;;;;;16.52;13.60;;;11.40;99.90;;;;;;5052803;28;20071;-81
2021/05/12 00:56:33;;;;;;;16.85;14.18;;;11.40;99.90;;;;;;5053678;28;20056;-81
2021/05/12 00:59:01;;;;;;;16.85;12.73;;;11.30;99.90;;;;;;5052982;28;20063;-81
2021/05/12 01:01:26;;;;;;;17.80;12.10;;;11.30;99.90;;;;;;5051960;28;20024;-81
2021/05/12 01:03:52;;;;;;;15.90;12.88;;;11.30;99.90;;;;;;5052271;28;20100;-81
2021/05/12 01:06:26;;;;;;;28.92;17.92;;;11.30;99.90;;;;;;5053345;28;20059;-81
2021/05/12 01:08:52;;;;;;;30.33;20.30;;;11.20;99.90;;;;;;5069235;28;20515;-81
2021/05/12 01:11:18;;;;;;;24.48;20.58;;;11.10;99.90;;;;;;5051361;28;20116;-82
2021/05/12 01:13:44;;;;;;;27.42;19.92;;;11.10;99.90;;;;;;5053406;28;20070;-81
2021/05/12 01:16:11;;;;;;;22.92;17.70;;;11.10;99.90;;;;;;5054348;28;20392;-82
2021/05/12 01:18:37;;;;;;;23.60;17.15;;;11.10;99.90;;;;;;5055277;28;20020;-82
2021/05/12 01:21:06;;;;;;;28.10;17.25;;;11.00;99.90;;;;;;5067339;28;20017;-81
2021/05/12 01:23:34;;;;;;;27.83;21.90;;;11.10;99.90;;;;;;5068686;28;20039;-81
2021/05/12 01:26:01;;;;;;;26.17;20.63;;;11.00;99.90;;;;;;5068127;28;20063;-81
2021/05/12 01:28:29;;;;;;;27.15;20.75;;;11.00;99.90;;;;;;5067817;28;20104;-81
2021/05/12 01:31:03;;;;;;;20.75;17.55;;;10.90;99.90;;;;;;5053387;28;20031;-81
2021/05/12 01:33:29;;;;;;;18.63;15.30;;;11.00;99.90;;;;;;5069584;28;20416;-81
2021/05/12 01:35:55;;;;;;;24.35;16.13;;;11.00;99.90;;;;;;5054607;28;20121;-82
2021/05/12 01:38:21;;;;;;;16.70;14.45;;;11.10;99.90;;;;;;5052133;28;20025;-81
2021/05/12 01:40:47;;;;;;;20.65;15.07;;;11.20;99.90;;;;;;5052809;28;20041;-81
2021/05/12 01:43:13;;;;;;;17.92;14.55;;;11.20;99.90;;;;;;5067957;28;20505;-81
2021/05/12 01:45:39;;;;;;;18.65;13.30;;;11.20;99.90;;;;;;5050753;28;20021;-81
2021/05/12 01:48:07;;;;;;;20.45;14.65;;;11.30;99.90;;;;;;5054251;28;20021;-81
2021/05/12 01:50:33;;;;;;;18.80;14.85;;;11.30;99.90;;;;;;5054213;28;20036;-81
2021/05/12 01:52:59;;;;;;;19.55;14.38;;;11.30;99.90;;;;;;5071066;28;20099;-81
2021/05/12 01:55:24;;;;;;;19.38;15.95;;;11.30;99.90;;;;;;5051957;28;20029;-81
2021/05/12 01:57:50;;;;;;;21.10;16.10;;;11.30;99.90;;;;;;5053921;28;20053;-81
2021/05/12 02:00:38;;;;;;;19.98;15.23;;;11.30;99.90;;;;;;5050914;28;20025;-81
2021/05/12 02:03:06;;;;;;;21.45;15.77;;;11.30;99.90;;;;;;5052514;28;20472;-81
2021/05/12 02:06:00;;;;;;;16.85;13.43;;;11.30;99.90;;;;;;5055182;28;20092;-81
2021/05/12 02:08:30;;;;;;;18.88;14.20;;;11.40;99.90;;;;;;5055681;28;20028;-82
2021/05/12 02:11:01;;;;;;;17.50;13.38;;;11.40;99.90;;;;;;5055698;28;20036;-82
2021/05/12 02:13:29;;;;;;;15.35;12.63;;;11.40;99.90;;;;;;5055336;28;20028;-82
2021/05/12 02:15:56;;;;;;;20.40;15.50;;;11.40;99.90;;;;;;5057291;28;20013;-82
2021/05/12 02:18:40;;;;;;;25.83;17.27;;;11.50;99.90;;;;;;5055745;28;20033;-81
2021/05/12 02:21:06;;;;;;;20.48;16.23;;;11.40;99.90;;;;;;5071857;28;20018;-81
2021/05/12 02:23:32;;;;;;;19.75;15.75;;;11.30;99.90;;;;;;5055006;28;20051;-82
2021/05/12 02:25:58;;;;;;;16.58;12.82;;;11.40;99.90;;;;;;5055412;28;20044;-82
2021/05/12 02:28:24;;;;;;;13.73;11.43;;;11.40;99.90;;;;;;5053854;28;20438;-82
2021/05/12 02:30:50;;;;;;;15.18;11.80;;;11.40;99.90;;;;;;5054881;28;20020;-81
2021/05/12 02:33:18;;;;;;;13.23;10.52;;;11.50;99.90;;;;;;5072546;28;20108;-82
2021/05/12 02:35:43;;;;;;;13.70;10.30;;;11.50;99.90;;;;;;5057091;28;20056;-81
2021/05/12 02:38:09;;;;;;;14.15;9.40;;;11.50;99.90;;;;;;5056285;28;20021;-82
2021/05/12 02:40:35;;;;;;;13.23;9.80;;;11.50;99.90;;;;;;5055954;28;20040;-82
2021/05/12 02:43:01;;;;;;;12.02;9.10;;;11.60;99.90;;;;;;5069847;28;20094;-82
2021/05/12 02:45:30;;;;;;;13.38;9.93;;;11.60;99.90;;;;;;5070303;28;20499;-82
2021/05/12 02:47:57;;;;;;;14.57;10.70;;;11.60;99.90;;;;;;5054700;28;20029;-82
2021/05/12 02:50:34;;;;;;;14.00;10.50;;;11.60;99.90;;;;;;5055327;28;20264;-81
2021/05/12 02:53:01;;;;;;;16.63;11.15;;;11.50;99.90;;;;;;5058488;28;20024;-81
2021/05/12 02:55:27;;;;;;;16.58;11.48;;;11.50;99.90;;;;;;5071393;28;20021;-81
2021/05/12 02:57:54;;;;;;;16.23;11.88;;;11.50;99.90;;;;;;5056626;28;20499;-81
2021/05/12 03:00:21;;;;;;;14.73;11.45;;;11.50;99.90;;;;;;5055015;28;20052;-82
2021/05/12 03:02:47;;;;;;;15.20;11.32;;;11.50;99.90;;;;;;5054655;28;20075;-82
2021/05/12 03:05:14;;;;;;;14.88;11.60;;;11.50;99.90;;;;;;5055349;28;20025;-82
2021/05/12 03:07:39;;;;;;;18.85;12.23;;;11.50;99.90;;;;;;5055277;28;20012;-82
2021/05/12 03:10:07;;;;;;;18.40;12.98;;;11.50;99.90;;;;;;5054037;28;20032;-81
2021/05/12 03:12:33;;;;;;;17.75;13.93;;;11.40;99.90;;;;;;5054305;28;20399;-82
2021/05/12 03:14:59;;;;;;;16.35;12.13;;;11.40;99.90;;;;;;5052398;28;20021;-82
2021/05/12 03:17:24;;;;;;;19.70;13.60;;;11.40;99.90;;;;;;5058138;28;20104;-81
2021/05/12 03:19:50;;;;;;;19.45;13.70;;;11.40;99.90;;;;;;5055768;28;20025;-82
2021/05/12 03:22:16;;;;;;;18.90;14.35;;;11.30;99.90;;;;;;5056926;28;20020;-81
2021/05/12 03:24:41;;;;;;;20.30;16.92;;;11.30;99.90;;;;;;5054910;28;20008;-81
2021/05/12 03:27:07;;;;;;;22.40;16.27;;;11.30;99.90;;;;;;5055150;28;20013;-81
2021/05/12 03:29:32;;;;;;;26.92;18.77;;;11.30;99.90;;;;;;5052635;28;20483;-81
2021/05/12 03:31:58;;;;;;;23.75;18.70;;;11.20;99.90;;;;;;5053451;28;20044;-81
2021/05/12 03:34:24;;;;;;;28.65;20.88;;;11.20;99.90;;;;;;5056825;28;20045;-81
2021/05/12 03:36:49;;;;;;;27.23;20.75;;;11.10;99.90;;;;;;5055529;28;20017;-81
2021/05/12 03:39:15;;;;;;;27.92;21.95;;;10.90;99.90;;;;;;5056476;28;20490;-81
2021/05/12 03:41:40;;;;;;;36.85;23.50;;;10.90;99.90;;;;;;5054526;28;20036;-81
2021/05/12 03:44:06;;;;;;;27.90;20.50;;;10.90;99.90;;;;;;5070096;28;20472;-81
2021/05/12 03:46:31;;;;;;;32.42;23.20;;;10.80;99.90;;;;;;5053567;28;20039;-81
2021/05/12 03:48:57;;;;;;;32.00;23.52;;;10.80;99.90;;;;;;5051971;28;20063;-81
2021/05/12 03:51:22;;;;;;;37.75;24.70;;;10.80;99.90;;;;;;5056555;28;20029;-81
2021/05/12 03:53:48;;;;;;;28.38;22.17;;;10.70;99.90;;;;;;5053900;28;20032;-82
2021/05/12 03:56:13;;;;;;;29.60;21.58;;;10.70;99.90;;;;;;5055063;28;20042;-82
2021/05/12 03:58:39;;;;;;;30.00;22.45;;;10.70;99.90;;;;;;5069631;28;20467;-81
2021/05/12 04:01:04;;;;;;;32.75;23.35;;;10.70;99.90;;;;;;5054311;28;20021;-82
2021/05/12 04:03:30;;;;;;;28.27;21.50;;;10.70;99.90;;;;;;5053666;28;20013;-81
2021/05/12 04:05:56;;;;;;;25.35;19.48;;;10.70;99.90;;;;;;5053146;28;20013;-81
2021/05/12 04:08:25;;;;;;;26.48;20.60;;;10.70;99.90;;;;;;5055175;28;20021;-76
2021/05/12 04:10:51;;;;;;;29.92;23.60;;;10.70;99.90;;;;;;5052233;28;20021;-76
2021/05/12 04:13:18;;;;;;;32.75;23.33;;;10.70;99.90;;;;;;5051987;28;20450;-76
2021/05/12 04:15:43;;;;;;;29.60;21.00;;;10.60;99.90;;;;;;5055210;28;20017;-76
2021/05/12 04:18:09;;;;;;;24.98;18.52;;;10.60;99.90;;;;;;5053655;28;20066;-76
2021/05/12 04:20:35;;;;;;;30.20;21.00;;;10.70;99.90;;;;;;5056489;28;20076;-76
2021/05/12 04:23:00;;;;;;;25.88;19.52;;;10.70;99.90;;;;;;5052952;28;20017;-76
2021/05/12 04:25:26;;;;;;;23.85;18.08;;;10.70;99.90;;;;;;5054430;28;20017;-76
2021/05/12 04:27:52;;;;;;;20.40;14.90;;;10.70;99.90;;;;;;5052988;28;20036;-76
2021/05/12 04:30:20;;;;;;;23.42;16.70;;;10.70;99.90;;;;;;5051577;28;20174;-76
2021/05/12 04:32:47;;;;;;;22.17;17.27;;;10.70;99.90;;;;;;5055036;28;20106;-76
2021/05/12 04:35:16;;;;;;;19.13;15.55;;;10.70;99.90;;;;;;5054693;28;20051;-76
2021/05/12 04:37:42;;;;;;;20.08;13.90;;;10.80;99.90;;;;;;5056334;28;20021;-76
2021/05/12 04:40:09;;;;;;;18.33;13.55;;;10.80;99.90;;;;;;5054040;28;20492;-76
2021/05/12 04:42:35;;;;;;;16.65;12.43;;;10.70;99.90;;;;;;5054631;28;20087;-76
2021/05/12 04:45:02;;;;;;;17.98;13.63;;;10.70;99.90;;;;;;5051818;28;20492;-76
2021/05/12 04:47:27;;;;;;;26.13;18.02;;;10.80;99.90;;;;;;5052974;28;20045;-76
2021/05/12 04:49:53;;;;;;;23.33;18.20;;;10.70;99.90;;;;;;5053455;28;20102;-76
2021/05/12 04:52:18;;;;;;;27.98;20.65;;;10.70;99.90;;;;;;5054587;28;20407;-76
2021/05/12 04:54:44;;;;;;;26.80;20.48;;;10.60;99.90;;;;;;5054648;28;20503;-77
2021/05/12 04:57:09;;;;;;;29.00;21.33;;;10.60;99.90;;;;;;5053662;28;20020;-76
2021/05/12 04:59:35;;;;;;;27.20;20.75;;;10.60;99.90;;;;;;5054173;28;20542;-76
2021/05/12 05:02:02;;;;;;;25.85;19.45;;;10.50;99.90;;;;;;5051568;28;20013;-76
2021/05/12 05:04:28;;;;;;;26.00;21.25;;;10.50;99.90;;;;;;5052566;28;20017;-76
2021/05/12 05:06:54;;;;;;;20.23;16.25;;;10.60;99.90;;;;;;5055016;28;20467;-76
2021/05/12 05:09:19;;;;;;;23.10;18.75;;;10.60;99.90;;;;;;5052028;28;20025;-76
2021/05/12 05:11:45;;;;;;;25.52;18.88;;;10.60;99.90;;;;;;5053117;28;20032;-76
2021/05/12 05:14:12;;;;;;;25.92;20.25;;;10.60;99.90;;;;;;5067712;28;20036;-76
2021/05/12 05:16:37;;;;;;;28.63;21.15;;;10.60;99.90;;;;;;5054830;28;20108;-76
2021/05/12 05:19:03;;;;;;;23.58;18.92;;;10.60;99.90;;;;;;5056387;28;20576;-76
2021/05/12 05:21:29;;;;;;;27.08;19.83;;;10.60;99.90;;;;;;5058158;28;20024;-78
2021/05/12 05:23:54;;;;;;;27.88;20.02;;;10.60;99.90;;;;;;5072665;28;20025;-75
2021/05/12 05:26:20;;;;;;;30.95;23.92;;;10.60;99.90;;;;;;5072309;28;20017;-75
2021/05/12 05:28:46;;;;;;;34.83;24.30;;;10.60;99.90;;;;;;5071501;28;20029;-75
2021/05/12 05:31:12;;;;;;;29.75;24.58;;;10.70;99.90;;;;;;5070532;28;20033;-75
2021/05/12 05:33:38;;;;;;;33.60;25.10;;;10.70;99.90;;;;;;5067485;28;20093;-75
2021/05/12 05:36:03;;;;;;;36.85;26.08;;;10.70;99.90;;;;;;5071564;28;20391;-75
2021/05/12 05:38:29;;;;;;;35.55;27.15;;;10.80;99.90;;;;;;5074327;28;20373;-75
2021/05/12 05:40:55;;;;;;;37.10;28.65;;;10.80;99.90;;;;;;5074977;28;20384;-75
2021/05/12 05:43:20;;;;;;;38.88;29.85;;;10.80;99.90;;;;;;5075679;28;20016;-75
2021/05/12 05:45:46;;;;;;;34.22;27.45;;;10.90;99.90;;;;;;5075306;28;20030;-75
2021/05/12 05:48:11;;;;;;;38.28;27.65;;;10.90;99.90;;;;;;5072401;28;20027;-75
2021/05/12 05:50:37;;;;;;;34.35;25.92;;;10.90;99.90;;;;;;5075940;28;20029;-75
2021/05/12 05:53:03;;;;;;;36.00;28.55;;;11.00;99.90;;;;;;5074380;28;20055;-76
2021/05/12 05:55:29;;;;;;;35.13;27.35;;;11.00;99.90;;;;;;5074817;28;20028;-80
2021/05/12 05:57:55;;;;;;;35.75;27.52;;;11.00;99.90;;;;;;5074789;28;20044;-76
2021/05/12 06:00:21;;;;;;;38.63;29.20;;;11.10;99.90;;;;;;5074571;28;20028;-75
2021/05/12 06:02:47;;;;;;;39.75;29.23;;;11.10;99.90;;;;;;5075137;28;20035;-75
2021/05/12 06:05:13;;;;;;;36.05;28.50;;;11.10;99.90;;;;;;5074058;28;20032;-75
2021/05/12 06:07:38;;;;;;;33.92;27.48;;;11.10;99.90;;;;;;5074668;28;20017;-75
2021/05/12 06:10:06;;;;;;;36.42;28.27;;;11.20;99.90;;;;;;5075050;28;20090;-75
2021/05/12 06:12:31;;;;;;;37.75;26.55;;;11.20;99.90;;;;;;5074399;28;20116;-75
2021/05/12 06:14:57;;;;;;;34.80;27.15;;;11.20;99.90;;;;;;5091504;28;20063;-75
2021/05/12 06:17:22;;;;;;;36.47;25.60;;;11.20;99.90;;;;;;5075563;28;20479;-75
2021/05/12 06:19:48;;;;;;;35.50;26.08;;;11.20;99.90;;;;;;5074539;28;20043;-75
2021/05/12 06:22:15;;;;;;;34.20;25.40;;;11.30;99.90;;;;;;5074181;28;20043;-75
2021/05/12 06:24:40;;;;;;;29.52;23.10;;;11.30;99.90;;;;;;5075323;28;20142;-75
2021/05/12 06:27:06;;;;;;;30.80;24.05;;;11.40;99.90;;;;;;5075101;28;20099;-75
2021/05/12 06:29:31;;;;;;;34.47;23.65;;;11.40;99.90;;;;;;5075131;28;20497;-75
2021/05/12 06:31:57;;;;;;;27.25;22.30;;;11.50;99.90;;;;;;5074674;28;20025;-75
2021/05/12 06:34:23;;;;;;;26.33;20.50;;;11.50;99.90;;;;;;5073602;28;20504;-75
2021/05/12 06:36:48;;;;;;;27.42;17.52;;;11.60;99.90;;;;;;5073496;28;20028;-75
2021/05/12 06:39:14;;;;;;;23.33;17.38;;;11.60;99.90;;;;;;5074518;28;20028;-76
2021/05/12 06:41:39;;;;;;;24.73;15.98;;;11.70;99.90;;;;;;5074699;28;20027;-75
2021/05/12 06:44:06;;;;;;;22.77;14.95;;;11.80;99.90;;;;;;5073431;28;20021;-75
2021/05/12 06:46:31;;;;;;;22.90;15.20;;;11.80;99.90;;;;;;5073497;28;20016;-75
2021/05/12 06:48:57;;;;;;;22.50;14.80;;;11.80;99.90;;;;;;5072693;28;20024;-75
2021/05/12 06:51:22;;;;;;;22.65;14.32;;;11.90;99.90;;;;;;5074266;28;20422;-75
2021/05/12 06:53:48;;;;;;;19.50;13.40;;;11.90;99.90;;;;;;5086288;28;20027;-75
2021/05/12 06:56:14;;;;;;;18.77;12.45;;;12.00;99.90;;;;;;5076824;28;20040;-75
2021/05/12 06:58:42;;;;;;;16.90;11.95;;;12.10;99.90;;;;;;5072912;28;20081;-75
2021/05/12 07:01:09;;;;;;;20.75;12.00;;;12.10;99.90;;;;;;5074790;28;20025;-75
2021/05/12 07:03:35;;;;;;;19.85;11.93;;;12.10;99.90;;;;;;5074597;28;20075;-75
2021/05/12 07:06:01;;;;;;;19.50;10.38;;;12.20;99.90;;;;;;5073422;28;20020;-75
2021/05/12 07:08:27;;;;;;;17.45;11.00;;;12.20;99.90;;;;;;5089906;28;20625;-75
2021/05/12 07:10:53;;;;;;;18.02;9.18;;;12.30;99.90;;;;;;5073872;28;20103;-75
2021/05/12 07:13:19;;;;;;;16.10;9.50;;;12.40;99.90;;;;;;5072900;28;20023;-76
2021/05/12 07:15:44;;;;;;;20.45;9.18;;;12.40;99.90;;;;;;5073205;28;20027;-75
2021/05/12 07:18:10;;;;;;;17.15;7.15;;;12.40;99.90;;;;;;5074399;28;20100;-75
2021/05/12 07:20:36;;;;;;;15.15;6.80;;;12.40;99.90;;;;;;5073062;28;20066;-76
2021/05/12 07:23:06;;;;;;;15.40;6.88;;;12.50;99.90;;;;;;5072954;28;20036;-75
2021/05/12 07:25:32;;;;;;;17.80;7.28;;;12.50;99.90;;;;;;5074243;28;20048;-76
2021/05/12 07:27:59;;;;;;;12.35;6.85;;;12.60;99.90;;;;;;5074226;28;20369;-75
2021/05/12 07:30:24;;;;;;;16.92;7.78;;;12.60;99.90;;;;;;5072981;28;20021;-75
2021/05/12 07:32:50;;;;;;;13.32;6.13;;;12.70;99.50;;;;;;5074131;28;20038;-75
2021/05/12 07:35:16;;;;;;;13.88;6.63;;;12.70;99.00;;;;;;5072777;28;20512;-75
2021/05/12 07:37:42;;;;;;;12.43;5.60;;;12.70;98.80;;;;;;5073952;28;20032;-75
2021/05/12 07:40:08;;;;;;;13.27;6.43;;;12.80;99.20;;;;;;5072815;28;20021;-76
2021/05/12 07:42:35;;;;;;;12.02;6.75;;;12.80;99.20;;;;;;5072628;28;20383;-75
2021/05/12 07:45:01;;;;;;;16.30;6.03;;;12.90;99.20;;;;;;5074062;28;20123;-75
2021/05/12 07:47:27;;;;;;;14.30;5.63;;;12.90;98.50;;;;;;5073918;28;20082;-75
2021/05/12 07:49:52;;;;;;;9.32;4.72;;;13.00;98.40;;;;;;5073909;28;20020;-76
2021/05/12 07:52:18;;;;;;;10.98;4.18;;;13.10;98.60;;;;;;5073588;28;20105;-75
2021/05/12 07:54:44;;;;;;;13.43;4.80;;;13.10;98.50;;;;;;5073890;28;20154;-75
2021/05/12 07:57:11;;;;;;;10.80;4.70;;;13.20;98.90;;;;;;5072493;28;20067;-75
2021/05/12 07:59:36;;;;;;;12.75;4.78;;;13.30;98.80;;;;;;5072383;28;20429;-75
2021/05/12 08:02:04;;;;;;;13.48;4.63;;;13.40;98.20;;;;;;5072621;28;20476;-75
2021/05/12 08:04:30;;;;;;;12.95;3.90;;;13.40;96.80;;;;;;5073711;28;20468;-75
2021/05/12 08:06:57;;;;;;;12.35;3.50;;;13.40;95.70;;;;;;5073505;28;20017;-75
2021/05/12 08:09:23;;;;;;;13.38;3.95;;;13.40;95.90;;;;;;5072222;28;20121;-75
2021/05/12 08:11:49;;;;;;;12.27;3.92;;;13.50;95.90;;;;;;5073459;28;20052;-75
2021/05/12 08:14:15;;;;;;;12.35;3.10;;;13.50;95.10;;;;;;5072186;28;20025;-75
2021/05/12 08:16:41;;;;;;;10.20;3.17;;;13.50;95.90;;;;;;5072739;28;20553;-75
2021/05/12 08:19:07;;;;;;;12.20;3.20;;;13.60;95.00;;;;;;5072959;28;20111;-75
2021/05/12 08:21:35;;;;;;;10.40;2.85;;;13.60;95.20;;;;;;5073347;28;20108;-76
2021/05/12 08:24:01;;;;;;;11.27;3.13;;;13.70;94.90;;;;;;5071810;28;20357;-76
2021/05/12 08:26:26;;;;;;;12.82;3.85;;;13.70;94.80;;;;;;5072043;28;20469;-80
2021/05/12 08:28:54;;;;;;;9.70;3.13;;;13.80;95.00;;;;;;5071913;28;20056;-76
2021/05/12 08:31:19;;;;;;;7.43;2.65;;;13.90;94.30;;;;;;5072957;28;20082;-76
2021/05/12 08:33:45;;;;;;;11.35;3.65;;;13.90;94.70;;;;;;5071628;28;20445;-76
2021/05/12 08:36:12;;;;;;;9.93;3.70;;;14.00;94.70;;;;;;5071825;28;20052;-76
2021/05/12 08:38:37;;;;;;;8.23;2.47;;;14.10;94.40;;;;;;5071634;28;20024;-76
2021/05/12 08:41:03;;;;;;;12.73;2.22;;;14.20;94.60;;;;;;5073257;28;20495;-76
2021/05/12 08:43:30;;;;;;;8.82;2.38;;;14.20;94.20;;;;;;5072778;28;20024;-76
2021/05/12 08:45:56;;;;;;;11.90;2.88;;;14.40;94.50;;;;;;5071091;28;20017;-76
2021/05/12 08:48:24;;;;;;;8.90;2.80;;;14.40;93.50;;;;;;5072509;28;20029;-76
2021/05/12 08:50:51;;;;;;;11.10;2.88;;;14.50;93.40;;;;;;5069702;28;20107;-76
2021/05/12 08:53:16;;;;;;;12.27;2.47;;;14.50;92.60;;;;;;5071232;28;20372;-76
2021/05/12 08:55:43;;;;;;;11.10;2.80;;;14.50;92.10;;;;;;5071106;28;20071;-76
2021/05/12 08:58:08;;;;;;;9.40;2.30;;;14.50;92.60;;;;;;5071158;28;20054;-76
2021/05/12 09:00:34;;;;;;;11.23;2.30;;;14.60;93.20;;;;;;5072563;28;20012;-76
2021/05/12 09:03:01;;;;;;;12.07;2.28;;;14.70;93.20;;;;;;5072495;28;20029;-76
2021/05/12 09:05:28;;;;;;;9.05;2.10;;;14.80;92.00;;;;;;5071214;28;20028;-76
2021/05/12 09:07:55;;;;;;;8.75;2.60;;;14.80;91.30;;;;;;5072756;28;20052;-76
2021/05/12 09:10:21;;;;;;;10.82;2.75;;;14.90;91.50;;;;;;5072839;28;20028;-76
2021/05/12 09:12:52;;;;;;;5.38;1.50;;;15.00;91.90;;;;;;5074369;28;20033;-77
2021/05/12 09:15:21;;;;;;;8.02;2.00;;;15.00;92.20;;;;;;5075602;28;20417;-76
2021/05/12 09:17:48;;;;;;;10.70;1.83;;;15.20;92.00;;;;;;5076595;28;20024;-76
2021/05/12 09:20:19;;;;;;;7.47;2.38;;;15.20;91.20;;;;;;5076615;28;20024;-76
2021/05/12 09:23:03;;;;;;;13.02;2.75;;;15.30;90.70;;;;;;5076171;28;20384;-76
2021/05/12 09:25:31;;;;;;;8.75;2.40;;;15.40;90.50;;;;;;5074665;28;20021;-76
2021/05/12 09:28:14;;;;;;;9.13;2.00;;;15.50;88.90;;;;;;5075310;28;20033;-76
2021/05/12 09:30:41;;;;;;;12.85;2.25;;;15.70;86.60;;;;;;5074759;28;20495;-77
2021/05/12 09:33:08;;;;;;;9.82;1.65;;;15.70;86.30;;;;;;5074683;28;20024;-77
2021/05/12 09:35:42;;;;;;;5.40;1.77;;;15.90;86.50;;;;;;5074668;28;20067;-77
2021/05/12 09:38:22;;;;;;;8.38;2.40;;;16.10;85.90;;;;;;5075855;28;20027;-77
2021/05/12 09:41:00;;;;;;;9.02;2.60;;;16.00;84.90;;;;;;5074556;28;20551;-76
2021/05/12 09:43:28;;;;;;;10.30;2.53;;;16.00;87.00;;;;;;5074388;28;20020;-77
2021/05/12 09:46:13;;;;;;;7.60;2.70;;;16.20;89.00;;;;;;5074234;28;20032;-77
2021/05/12 09:48:38;;;;;;;9.63;3.35;;;16.50;88.60;;;;;;5074901;28;20467;-77
2021/05/12 09:51:15;;;;;;;15.65;3.47;;;16.80;86.20;;;;;;5074633;28;20039;-77
2021/05/12 09:54:19;;;;;;;8.32;2.90;;;16.90;83.10;;;;;;5074771;28;20476;-76
2021/05/12 09:56:50;;;;;;;7.57;2.50;;;17.00;81.90;;;;;;5087960;28;20032;-77
2021/05/12 09:59:24;;;;;;;6.10;2.10;;;18.80;81.80;;;;;;5073851;28;20071;-77
2021/05/12 10:01:57;;;;;;;8.30;3.35;;;20.20;77.70;;;;;;5085124;28;20040;-82
2021/05/12 10:04:45;;;;;;;6.80;2.33;;;21.50;67.30;;;;;;5073899;28;20028;-77
2021/05/12 10:07:23;;;;;;;4.85;1.75;;;21.80;66.60;;;;;;5074942;28;20087;-78
2021/05/12 10:09:54;;;;;;;6.43;2.17;;;21.40;59.70;;;;;;5074433;28;20451;-77
2021/05/12 10:12:22;;;;;;;8.02;2.35;;;21.30;60.10;;;;;;5075720;28;20020;-77
2021/05/12 10:14:50;;;;;;;9.73;2.13;;;22.70;58.50;;;;;;5074448;28;20074;-77
2021/05/12 10:17:18;;;;;;;6.20;2.25;;;24.00;55.60;;;;;;5075626;28;20020;-78
2021/05/12 10:19:44;;;;;;;6.57;1.88;;;24.10;52.30;;;;;;5073667;28;20052;-77
2021/05/12 10:22:11;;;;;;;7.82;1.80;;;24.60;51.20;;;;;;5073909;28;20024;-77
2021/05/12 10:24:39;;;;;;;7.07;1.52;;;23.40;49.20;;;;;;5072980;28;20021;-77
2021/05/12 10:27:22;;;;;;;5.35;1.65;;;23.30;50.50;;;;;;5072679;28;20024;-77
2021/05/12 10:29:55;;;;;;;5.65;1.60;;;22.40;50.50;;;;;;5071103;28;20025;-77
2021/05/12 10:32:28;;;;;;;4.38;1.25;;;21.80;50.30;;;;;;5074141;28;20472;-77
2021/05/12 10:35:33;;;;;;;8.25;1.85;;;23.10;51.60;;;;;;5071516;28;20094;-77
2021/05/12 10:37:59;;;;;;;6.35;1.85;;;25.10;48.70;;;;;;5060808;28;20035;-77
2021/05/12 10:40:38;;;;;;;6.30;1.60;;;25.90;46.70;;;;;;5073979;28;20029;-77
2021/05/12 10:45:53;;;;;;;6.20;1.92;;;26.10;43.70;;;;;;5073428;28;20028;-77
2021/05/12 10:48:48;;;;;;;6.75;1.60;;;24.30;45.60;;;;;;5089012;28;20021;-77
2021/05/12 10:51:24;;;;;;;6.47;2.00;;;23.60;48.00;;;;;;5072436;28;20089;-77
2021/05/12 10:53:51;;;;;;;6.97;2.30;;;24.50;49.10;;;;;;5074286;28;20013;-77
2021/05/12 10:56:22;;;;;;;5.05;1.58;;;25.70;44.90;;;;;;5074385;28;20020;-77
2021/05/12 10:58:58;;;;;;;4.72;1.17;;;25.00;44.30;;;;;;5072413;28;20081;-77
2021/05/12 11:01:51;;;;;;;4.30;1.38;;;24.10;45.40;;;;;;5072516;28;20024;-77
2021/05/12 11:04:19;;;;;;;3.40;1.42;;;24.30;47.40;;;;;;5071991;28;20461;-77
2021/05/12 11:06:44;;;;;;;4.25;1.38;;;24.60;47.80;;;;;;5073787;28;20035;-77
2021/05/12 11:09:11;;;;;;;7.63;2.00;;;24.00;48.10;;;;;;5074316;28;20024;-77
2021/05/12 11:11:48;;;;;;;6.45;2.30;;;23.40;47.80;;;;;;5072864;28;20025;-77
2021/05/12 11:14:29;;;;;;;5.38;1.50;;;22.20;49.30;;;;;;5072056;28;20036;-77
2021/05/12 11:17:03;;;;;;;6.10;1.65;;;21.60;51.00;;;;;;5072064;28;20353;-77
2021/05/12 11:20:01;;;;;;;4.20;1.83;;;23.10;51.70;;;;;;5086777;28;20025;-77
2021/05/12 11:22:37;;;;;;;5.03;1.48;;;25.20;47.60;;;;;;5072391;28;20024;-77
2021/05/12 11:33:27;;;;;;;6.25;1.95;;;29.70;39.40;;;;;;5074565;28;20031;-78
2021/05/12 11:35:57;;;;;;;;;;;29.20;39.90;;;;;;5073575;28;20056;-75
2021/05/12 11:38:23;;;;;;;5.05;1.50;;;29.00;39.00;;;;;;5073859;28;19954;-75
2021/05/12 11:41:06;;;;;;;4.93;1.30;;;29.20;39.00;;;;;;5072356;28;20016;-75
2021/05/12 11:43:35;;;;;;;7.35;1.98;;;29.60;38.30;;;;;;5072763;28;20024;-75
2021/05/12 11:46:23;;;;;;;4.78;1.60;;;30.10;37.40;;;;;;5073939;28;20059;-74
2021/05/12 11:48:57;;;;;;;4.10;1.60;;;30.80;38.30;;;;;;5072707;28;20499;-74
2021/05/12 11:51:27;;;;;;;5.95;1.73;;;31.30;36.70;;;;;;5072723;28;20029;-75
2021/05/12 11:53:54;;;;;;;5.30;1.95;;;30.40;36.60;;;;;;5073834;28;20020;-79
2021/05/12 11:56:20;;;;;;;5.70;1.92;;;28.30;38.30;;;;;;5071945;28;20082;-74
2021/05/12 11:59:02;;;;;;;6.35;2.53;;;28.30;39.40;;;;;;5071237;28;20022;-75
2021/05/12 12:01:29;;;;;;;4.53;1.38;;;28.60;39.70;;;;;;5071541;28;20078;-74
2021/05/12 12:07:04;;;;;;;4.90;1.40;;;28.50;38.70;;;;;;5031127;28;20068;-74
2021/05/12 12:09:30;;;;;;;5.78;1.88;;;27.50;39.40;;;;;;5031227;28;20033;-74
2021/05/12 12:11:58;;;;;;;4.13;1.42;;;26.60;40.30;;;;;;5048547;28;20086;-74
2021/05/12 12:14:31;;;;;;;7.95;1.88;;;27.10;41.10;;;;;;5072879;28;20025;-74
2021/05/12 12:16:57;;;;;;;6.07;1.88;;;27.60;40.20;;;;;;5071555;28;20049;-74
2021/05/12 12:19:26;;;;;;;6.53;1.75;;;26.70;38.90;;;;;;5071582;28;20048;-74
2021/05/12 12:21:56;;;;;;;4.47;1.40;;;25.60;40.90;;;;;;5072864;28;20023;-74
2021/05/12 12:24:25;;;;;;;3.90;1.27;;;25.20;43.20;;;;;;5071578;28;20063;-74
2021/05/12 12:26:54;;;;;;;5.33;1.80;;;24.20;43.50;;;;;;5071557;28;20437;-74
2021/05/12 12:29:21;;;;;;;7.75;1.75;;;23.50;45.40;;;;;;5072726;28;20412;-74
2021/05/12 12:31:50;;;;;;;6.45;1.83;;;23.10;47.50;;;;;;5072712;28;20027;-74
2021/05/12 12:34:23;;;;;;;8.18;1.98;;;22.80;46.60;;;;;;5072668;28;20040;-74
2021/05/12 12:36:52;;;;;;;5.60;1.50;;;22.40;47.90;;;;;;5070211;28;20056;-74
2021/05/12 12:39:18;;;;;;;7.82;1.90;;;22.20;48.30;;;;;;5071453;28;20033;-74
2021/05/12 12:41:52;;;;;;;6.53;1.80;;;22.10;49.00;;;;;;5072959;28;20032;-74
2021/05/12 12:44:19;;;;;;;10.48;2.10;;;22.20;48.70;;;;;;5071832;28;20364;-74
2021/05/12 12:46:57;;;;;;;5.93;1.42;;;22.10;49.00;;;;;;5072554;28;20027;-73
2021/05/12 12:49:38;;;;;;;8.00;1.50;;;22.40;49.00;;;;;;5072339;28;20415;-74
2021/05/12 12:52:12;;;;;;;6.30;1.30;;;22.90;48.00;;;;;;5071247;28;20036;-74
2021/05/12 12:54:47;;;;;;;4.72;1.23;;;23.20;46.90;;;;;;5072541;28;20020;-74